RYR54HT EPMO-LGSA
Flight info
| Callsign | RYR54HT |
|---|---|
| Flight time | 2h 28m |
| Altitude | 38000 |
| Route | EVINA M66 BABKO/N0438F370 DCT PARAK DCT RAXAD DCT MAKED UL617 SKP UM749 ATV UP169 MANOK L612 RUSOS |
| Aircraft | B38M/M-SADE3FGILRWY/SB1 |
Departure
| Time | 2026-04-24 13:34 |
|---|---|
| Airport | Warsaw Modlin Airport (EPMO) |
Arrival
| Time | 2026-04-24 16:02 |
|---|---|
| Airport | Chania International Airport (LGSA) |
| Time | Latitude | Longitude | Altitude | Speed | Heading |
|---|---|---|---|---|---|
| 2026-04-24 13:03 | 52.44726 | 20.65022 | 336 ft | 0 kts | 206° |
| 2026-04-24 13:24 | 52.44729 | 20.65024 | 340 ft | 3 kts | 205° |
| 2026-04-24 13:24 | 52.44752 | 20.65035 | 339 ft | 4 kts | 170° |
| 2026-04-24 13:24 | 52.44767 | 20.65017 | 336 ft | 4 kts | 95° |
| 2026-04-24 13:24 | 52.44767 | 20.64999 | 337 ft | 1 kts | 81° |
| 2026-04-24 13:25 | 52.44767 | 20.64997 | 337 ft | 0 kts | 81° |
| 2026-04-24 13:29 | 52.44767 | 20.65001 | 338 ft | 1 kts | 81° |
| 2026-04-24 13:30 | 52.44769 | 20.65028 | 336 ft | 4 kts | 82° |
| 2026-04-24 13:30 | 52.44775 | 20.65085 | 338 ft | 7 kts | 81° |
| 2026-04-24 13:30 | 52.44786 | 20.65201 | 340 ft | 13 kts | 81° |
| 2026-04-24 13:30 | 52.44800 | 20.65361 | 340 ft | 15 kts | 82° |
| 2026-04-24 13:31 | 52.44818 | 20.65546 | 339 ft | 16 kts | 81° |
| 2026-04-24 13:31 | 52.44834 | 20.65739 | 339 ft | 18 kts | 82° |
| 2026-04-24 13:31 | 52.44854 | 20.65948 | 339 ft | 20 kts | 81° |
| 2026-04-24 13:31 | 52.44876 | 20.66180 | 339 ft | 21 kts | 81° |
| 2026-04-24 13:32 | 52.44899 | 20.66431 | 341 ft | 23 kts | 81° |
| 2026-04-24 13:32 | 52.44925 | 20.66700 | 338 ft | 23 kts | 82° |
| 2026-04-24 13:32 | 52.44944 | 20.66904 | 339 ft | 18 kts | 81° |
| 2026-04-24 13:32 | 52.44984 | 20.67076 | 341 ft | 16 kts | 22° |
| 2026-04-24 13:33 | 52.45091 | 20.67059 | 338 ft | 16 kts | 351° |
| 2026-04-24 13:33 | 52.45209 | 20.67021 | 340 ft | 18 kts | 341° |
| 2026-04-24 13:33 | 52.45290 | 20.66949 | 344 ft | 6 kts | 274° |
| 2026-04-24 13:33 | 52.45277 | 20.66828 | 340 ft | 31 kts | 261° |
| 2026-04-24 13:34 | 52.45200 | 20.66022 | 341 ft | 109 kts | 261° |
| 2026-04-24 13:34 | 52.45049 | 20.64454 | 412 ft | 162 kts | 263° |
| 2026-04-24 13:34 | 52.44801 | 20.62563 | 1110 ft | 174 kts | 258° |
| 2026-04-24 13:34 | 52.44536 | 20.60628 | 1982 ft | 178 kts | 265° |
| 2026-04-24 13:35 | 52.44373 | 20.58560 | 2673 ft | 192 kts | 261° |
| 2026-04-24 13:35 | 52.43657 | 20.56498 | 3022 ft | 231 kts | 223° |
| 2026-04-24 13:35 | 52.42117 | 20.55376 | 3637 ft | 255 kts | 189° |
| 2026-04-24 13:35 | 52.40295 | 20.55144 | 4409 ft | 270 kts | 189° |
| 2026-04-24 13:36 | 52.38412 | 20.54775 | 5397 ft | 272 kts | 189° |
| 2026-04-24 13:36 | 52.36541 | 20.54410 | 6378 ft | 276 kts | 189° |
| 2026-04-24 13:36 | 52.34608 | 20.54037 | 7305 ft | 280 kts | 189° |
| 2026-04-24 13:36 | 52.32644 | 20.53657 | 8126 ft | 288 kts | 189° |
| 2026-04-24 13:37 | 52.30661 | 20.53276 | 9008 ft | 293 kts | 188° |
| 2026-04-24 13:37 | 52.28604 | 20.52879 | 9848 ft | 299 kts | 188° |
| 2026-04-24 13:37 | 52.26499 | 20.52473 | 10486 ft | 312 kts | 188° |
| 2026-04-24 13:37 | 52.24288 | 20.52036 | 10992 ft | 328 kts | 188° |
| 2026-04-24 13:38 | 52.21976 | 20.51582 | 11579 ft | 340 kts | 188° |
| 2026-04-24 13:38 | 52.19634 | 20.51126 | 12355 ft | 344 kts | 188° |
| 2026-04-24 13:38 | 52.17238 | 20.50666 | 13160 ft | 348 kts | 188° |
| 2026-04-24 13:38 | 52.14812 | 20.50204 | 13899 ft | 354 kts | 188° |
| 2026-04-24 13:39 | 52.12355 | 20.49734 | 14670 ft | 356 kts | 188° |
| 2026-04-24 13:39 | 52.09875 | 20.49262 | 15377 ft | 361 kts | 188° |
| 2026-04-24 13:39 | 52.07357 | 20.48783 | 16080 ft | 365 kts | 189° |
| 2026-04-24 13:39 | 52.04849 | 20.48307 | 16770 ft | 370 kts | 189° |
| 2026-04-24 13:40 | 52.02274 | 20.47820 | 17450 ft | 374 kts | 189° |
| 2026-04-24 13:40 | 51.99674 | 20.47328 | 18118 ft | 378 kts | 189° |
| 2026-04-24 13:40 | 51.97036 | 20.46831 | 18687 ft | 384 kts | 189° |
| 2026-04-24 13:40 | 51.94362 | 20.46325 | 19234 ft | 388 kts | 189° |
| 2026-04-24 13:41 | 51.91656 | 20.45816 | 19800 ft | 392 kts | 189° |
| 2026-04-24 13:41 | 51.88935 | 20.45304 | 20352 ft | 396 kts | 190° |
| 2026-04-24 13:41 | 51.86214 | 20.44794 | 20887 ft | 400 kts | 190° |
| 2026-04-24 13:41 | 51.83432 | 20.44272 | 21434 ft | 404 kts | 190° |
| 2026-04-24 13:42 | 51.80631 | 20.43747 | 21966 ft | 407 kts | 190° |
| 2026-04-24 13:42 | 51.77791 | 20.43216 | 22502 ft | 411 kts | 190° |
| 2026-04-24 13:42 | 51.74932 | 20.42683 | 23021 ft | 415 kts | 190° |
| 2026-04-24 13:42 | 51.72079 | 20.42151 | 23520 ft | 419 kts | 190° |
| 2026-04-24 13:43 | 51.69176 | 20.41610 | 23955 ft | 422 kts | 191° |
| 2026-04-24 13:43 | 51.66242 | 20.41065 | 24391 ft | 425 kts | 191° |
| 2026-04-24 13:43 | 51.63288 | 20.40517 | 24817 ft | 428 kts | 191° |
| 2026-04-24 13:43 | 51.60318 | 20.39967 | 25237 ft | 431 kts | 191° |
| 2026-04-24 13:44 | 51.57322 | 20.39412 | 25651 ft | 434 kts | 191° |
| 2026-04-24 13:44 | 51.54301 | 20.38854 | 26071 ft | 437 kts | 191° |
| 2026-04-24 13:44 | 51.51309 | 20.38302 | 26471 ft | 440 kts | 191° |
| 2026-04-24 13:44 | 51.48254 | 20.37739 | 26871 ft | 442 kts | 191° |
| 2026-04-24 13:45 | 51.45185 | 20.37175 | 27251 ft | 445 kts | 191° |
| 2026-04-24 13:45 | 51.42095 | 20.36607 | 27650 ft | 447 kts | 191° |
| 2026-04-24 13:45 | 51.38993 | 20.35981 | 28021 ft | 448 kts | 196° |
| 2026-04-24 13:45 | 51.36037 | 20.34567 | 28388 ft | 444 kts | 204° |
| 2026-04-24 13:46 | 51.34076 | 20.33531 | 28600 ft | 448 kts | 203° |
| 2026-04-24 13:46 | 51.31103 | 20.31997 | 28970 ft | 450 kts | 203° |
| 2026-04-24 13:46 | 51.28117 | 20.30449 | 29344 ft | 453 kts | 203° |
| 2026-04-24 13:46 | 51.25113 | 20.28892 | 29706 ft | 455 kts | 204° |
| 2026-04-24 13:47 | 51.22090 | 20.27325 | 30035 ft | 458 kts | 203° |
| 2026-04-24 13:47 | 51.19046 | 20.25751 | 30318 ft | 460 kts | 203° |
| 2026-04-24 13:47 | 51.15979 | 20.24166 | 30606 ft | 463 kts | 203° |
| 2026-04-24 13:47 | 51.12945 | 20.22601 | 30885 ft | 465 kts | 203° |
| 2026-04-24 13:48 | 51.09852 | 20.21007 | 31166 ft | 467 kts | 203° |
| 2026-04-24 13:48 | 51.06731 | 20.19401 | 31442 ft | 470 kts | 203° |
| 2026-04-24 13:48 | 51.03644 | 20.17815 | 31713 ft | 472 kts | 203° |
| 2026-04-24 13:48 | 51.00498 | 20.16201 | 31967 ft | 474 kts | 203° |
| 2026-04-24 13:49 | 50.97340 | 20.14583 | 32236 ft | 477 kts | 202° |
| 2026-04-24 13:49 | 50.94203 | 20.12978 | 32502 ft | 479 kts | 202° |
| 2026-04-24 13:49 | 50.91012 | 20.11349 | 32764 ft | 481 kts | 202° |
| 2026-04-24 13:49 | 50.87805 | 20.09714 | 33024 ft | 483 kts | 202° |
| 2026-04-24 13:50 | 50.84595 | 20.08080 | 33284 ft | 486 kts | 202° |
| 2026-04-24 13:50 | 50.81404 | 20.06458 | 33547 ft | 488 kts | 202° |
| 2026-04-24 13:50 | 50.78167 | 20.04813 | 33876 ft | 488 kts | 202° |
| 2026-04-24 13:50 | 50.74923 | 20.03168 | 34169 ft | 488 kts | 202° |
| 2026-04-24 13:51 | 50.71678 | 20.01525 | 34481 ft | 487 kts | 202° |
| 2026-04-24 13:51 | 50.68441 | 19.99888 | 34779 ft | 488 kts | 202° |
| 2026-04-24 13:51 | 50.65242 | 19.98272 | 35038 ft | 488 kts | 202° |
| 2026-04-24 13:51 | 50.62001 | 19.96638 | 35331 ft | 488 kts | 202° |
| 2026-04-24 13:52 | 50.58761 | 19.95007 | 35606 ft | 488 kts | 202° |
| 2026-04-24 13:52 | 50.55528 | 19.93381 | 35862 ft | 488 kts | 202° |
| 2026-04-24 13:52 | 50.52288 | 19.91755 | 36103 ft | 488 kts | 202° |
| 2026-04-24 13:52 | 50.49095 | 19.90154 | 36351 ft | 488 kts | 202° |
| 2026-04-24 13:53 | 50.45854 | 19.88531 | 36610 ft | 488 kts | 202° |
| 2026-04-24 13:53 | 50.42615 | 19.86912 | 36856 ft | 488 kts | 202° |
| 2026-04-24 13:53 | 50.39374 | 19.85294 | 37095 ft | 488 kts | 202° |
| 2026-04-24 13:53 | 50.36127 | 19.83675 | 37339 ft | 488 kts | 202° |
| 2026-04-24 13:54 | 50.32928 | 19.82084 | 37555 ft | 487 kts | 202° |
| 2026-04-24 13:54 | 50.29690 | 19.80474 | 37754 ft | 488 kts | 202° |
| 2026-04-24 13:54 | 50.26452 | 19.78867 | 37961 ft | 488 kts | 202° |
| 2026-04-24 13:54 | 50.23218 | 19.77264 | 38178 ft | 488 kts | 202° |
| 2026-04-24 13:55 | 50.19977 | 19.75660 | 38369 ft | 488 kts | 202° |
| 2026-04-24 13:55 | 50.16744 | 19.74063 | 38532 ft | 488 kts | 202° |
| 2026-04-24 13:55 | 50.13501 | 19.72462 | 38695 ft | 488 kts | 202° |
| 2026-04-24 13:55 | 50.10300 | 19.70885 | 38838 ft | 487 kts | 201° |
| 2026-04-24 13:56 | 50.07061 | 19.69291 | 38978 ft | 487 kts | 201° |
| 2026-04-24 13:56 | 50.03812 | 19.67694 | 39033 ft | 488 kts | 201° |
| 2026-04-24 13:56 | 49.97388 | 19.64543 | 39021 ft | 485 kts | 201° |
| 2026-04-24 13:57 | 49.90929 | 19.61385 | 39026 ft | 486 kts | 201° |
| 2026-04-24 13:57 | 49.84468 | 19.58234 | 39029 ft | 487 kts | 201° |
| 2026-04-24 13:58 | 49.78008 | 19.55092 | 39029 ft | 487 kts | 201° |
| 2026-04-24 13:58 | 49.71529 | 19.51950 | 39025 ft | 487 kts | 201° |
| 2026-04-24 13:59 | 49.65081 | 19.48831 | 39024 ft | 487 kts | 200° |
| 2026-04-24 13:59 | 49.61778 | 19.47627 | 38999 ft | 490 kts | 186° |
| 2026-04-24 13:59 | 49.58370 | 19.47711 | 39029 ft | 490 kts | 174° |
| 2026-04-24 14:00 | 49.51591 | 19.48850 | 39009 ft | 493 kts | 174° |
| 2026-04-24 14:00 | 49.44759 | 19.50118 | 39033 ft | 495 kts | 173° |
| 2026-04-24 14:01 | 49.37912 | 19.51432 | 39030 ft | 494 kts | 173° |
| 2026-04-24 14:01 | 49.31078 | 19.52742 | 39031 ft | 495 kts | 173° |
| 2026-04-24 14:02 | 49.24279 | 19.54043 | 39023 ft | 495 kts | 173° |
| 2026-04-24 14:02 | 49.17444 | 19.55346 | 39012 ft | 494 kts | 173° |
| 2026-04-24 14:03 | 49.10659 | 19.56636 | 39013 ft | 493 kts | 173° |
| 2026-04-24 14:03 | 49.03835 | 19.57931 | 39009 ft | 494 kts | 173° |
| 2026-04-24 14:04 | 48.97007 | 19.59223 | 39002 ft | 493 kts | 173° |
| 2026-04-24 14:04 | 48.90222 | 19.60502 | 38976 ft | 492 kts | 173° |
| 2026-04-24 14:05 | 48.83392 | 19.61786 | 39017 ft | 494 kts | 173° |
| 2026-04-24 14:05 | 48.76578 | 19.63064 | 38993 ft | 491 kts | 172° |
| 2026-04-24 14:06 | 48.69822 | 19.64329 | 38979 ft | 491 kts | 172° |
| 2026-04-24 14:06 | 48.63020 | 19.65597 | 38971 ft | 491 kts | 172° |
| 2026-04-24 14:07 | 48.56270 | 19.66854 | 38974 ft | 492 kts | 172° |
| 2026-04-24 14:07 | 48.49464 | 19.68117 | 38967 ft | 491 kts | 172° |
| 2026-04-24 14:08 | 48.42695 | 19.69368 | 38961 ft | 491 kts | 172° |
| 2026-04-24 14:08 | 48.35892 | 19.70624 | 38970 ft | 491 kts | 172° |
| 2026-04-24 14:09 | 48.29135 | 19.71868 | 38973 ft | 491 kts | 172° |
| 2026-04-24 14:09 | 48.22318 | 19.73120 | 38958 ft | 491 kts | 172° |
| 2026-04-24 14:10 | 48.15571 | 19.74355 | 38964 ft | 490 kts | 172° |
| 2026-04-24 14:10 | 48.08782 | 19.75594 | 38967 ft | 491 kts | 172° |
| 2026-04-24 14:11 | 48.02047 | 19.76821 | 38956 ft | 490 kts | 172° |
| 2026-04-24 14:12 | 47.91887 | 19.78665 | 38962 ft | 489 kts | 172° |
| 2026-04-24 14:12 | 47.85170 | 19.79880 | 38962 ft | 489 kts | 172° |
| 2026-04-24 14:13 | 47.78386 | 19.81105 | 38966 ft | 489 kts | 172° |
| 2026-04-24 14:13 | 47.71619 | 19.82323 | 38965 ft | 489 kts | 172° |
| 2026-04-24 14:14 | 47.64903 | 19.83528 | 38972 ft | 489 kts | 172° |
| 2026-04-24 14:14 | 47.54755 | 19.85344 | 38964 ft | 488 kts | 171° |
| 2026-04-24 14:15 | 47.48058 | 19.86538 | 38973 ft | 487 kts | 171° |
| 2026-04-24 14:15 | 47.41315 | 19.87737 | 38976 ft | 487 kts | 171° |
| 2026-04-24 14:16 | 47.34583 | 19.88932 | 38993 ft | 487 kts | 172° |
| 2026-04-24 14:17 | 47.24560 | 19.90705 | 38974 ft | 483 kts | 171° |
| 2026-04-24 14:17 | 47.14509 | 19.92475 | 38974 ft | 484 kts | 171° |
| 2026-04-24 14:18 | 47.07861 | 19.93643 | 38989 ft | 484 kts | 171° |
| 2026-04-24 14:18 | 47.01154 | 19.94818 | 38991 ft | 484 kts | 171° |
| 2026-04-24 14:19 | 46.94465 | 19.95987 | 38993 ft | 484 kts | 171° |
| 2026-04-24 14:19 | 46.87816 | 19.97146 | 38988 ft | 484 kts | 171° |
| 2026-04-24 14:20 | 46.81127 | 19.98309 | 38991 ft | 481 kts | 171° |
| 2026-04-24 14:20 | 46.74516 | 19.99455 | 38993 ft | 481 kts | 171° |
| 2026-04-24 14:21 | 46.67854 | 20.00608 | 38996 ft | 481 kts | 171° |
| 2026-04-24 14:21 | 46.61201 | 20.01756 | 38996 ft | 480 kts | 171° |
| 2026-04-24 14:22 | 46.54570 | 20.02898 | 38998 ft | 479 kts | 171° |
| 2026-04-24 14:23 | 46.44665 | 20.04598 | 38993 ft | 479 kts | 171° |
| 2026-04-24 14:23 | 46.38071 | 20.05727 | 38999 ft | 478 kts | 171° |
| 2026-04-24 14:24 | 46.31458 | 20.06856 | 39006 ft | 477 kts | 171° |
| 2026-04-24 14:24 | 46.24878 | 20.07977 | 39004 ft | 478 kts | 171° |
| 2026-04-24 14:25 | 46.19382 | 20.08912 | 39000 ft | 477 kts | 171° |
| 2026-04-24 14:25 | 46.15120 | 20.10275 | 38987 ft | 467 kts | 154° |
| 2026-04-24 14:25 | 46.12120 | 20.12082 | 39018 ft | 468 kts | 155° |
| 2026-04-24 14:26 | 46.06049 | 20.15608 | 39012 ft | 469 kts | 154° |
| 2026-04-24 14:26 | 45.99995 | 20.19200 | 39020 ft | 469 kts | 154° |
| 2026-04-24 14:27 | 45.93991 | 20.22767 | 39009 ft | 468 kts | 154° |
| 2026-04-24 14:27 | 45.87951 | 20.26347 | 39009 ft | 468 kts | 154° |
| 2026-04-24 14:28 | 45.81961 | 20.29889 | 39006 ft | 468 kts | 154° |
| 2026-04-24 14:28 | 45.75928 | 20.33449 | 39012 ft | 468 kts | 154° |
| 2026-04-24 14:29 | 45.69940 | 20.36973 | 39008 ft | 466 kts | 154° |
| 2026-04-24 14:29 | 45.63937 | 20.40498 | 39013 ft | 466 kts | 154° |
| 2026-04-24 14:30 | 45.58905 | 20.43447 | 39007 ft | 466 kts | 154° |
| 2026-04-24 14:30 | 45.51913 | 20.47535 | 39008 ft | 466 kts | 154° |
| 2026-04-24 14:31 | 45.45955 | 20.51009 | 39006 ft | 464 kts | 154° |
| 2026-04-24 14:31 | 45.39960 | 20.54497 | 39010 ft | 464 kts | 154° |
| 2026-04-24 14:32 | 45.34007 | 20.57953 | 39017 ft | 464 kts | 154° |
| 2026-04-24 14:32 | 45.28018 | 20.61421 | 39002 ft | 464 kts | 155° |
| 2026-04-24 14:33 | 45.22088 | 20.64848 | 39004 ft | 462 kts | 155° |
| 2026-04-24 14:33 | 45.17124 | 20.67710 | 39011 ft | 462 kts | 155° |
| 2026-04-24 14:34 | 45.10182 | 20.71704 | 39014 ft | 462 kts | 155° |
| 2026-04-24 14:34 | 45.05216 | 20.74556 | 39024 ft | 462 kts | 155° |
| 2026-04-24 14:35 | 44.99242 | 20.77977 | 39016 ft | 462 kts | 155° |
| 2026-04-24 14:35 | 44.93262 | 20.81395 | 39012 ft | 462 kts | 155° |
| 2026-04-24 14:36 | 44.87330 | 20.84779 | 39017 ft | 463 kts | 155° |
| 2026-04-24 14:36 | 44.81338 | 20.88188 | 39019 ft | 463 kts | 155° |
| 2026-04-24 14:37 | 44.75369 | 20.91577 | 39033 ft | 463 kts | 155° |
| 2026-04-24 14:37 | 44.69393 | 20.94962 | 39025 ft | 463 kts | 155° |
| 2026-04-24 14:38 | 44.63447 | 20.98322 | 39014 ft | 463 kts | 155° |
| 2026-04-24 14:38 | 44.57448 | 21.01706 | 39018 ft | 463 kts | 155° |
| 2026-04-24 14:39 | 44.51500 | 21.05052 | 39013 ft | 462 kts | 155° |
| 2026-04-24 14:39 | 44.45502 | 21.08420 | 39008 ft | 462 kts | 155° |
| 2026-04-24 14:40 | 44.39546 | 21.11757 | 39021 ft | 463 kts | 155° |
| 2026-04-24 14:40 | 44.33549 | 21.15109 | 39015 ft | 462 kts | 155° |
| 2026-04-24 14:41 | 44.27611 | 21.18421 | 39017 ft | 462 kts | 155° |
| 2026-04-24 14:41 | 44.21615 | 21.21759 | 39009 ft | 462 kts | 155° |
| 2026-04-24 14:42 | 44.15661 | 21.25065 | 39005 ft | 462 kts | 155° |
| 2026-04-24 14:42 | 44.09680 | 21.28379 | 39008 ft | 462 kts | 155° |
| 2026-04-24 14:43 | 44.03728 | 21.31670 | 39007 ft | 462 kts | 155° |
| 2026-04-24 14:43 | 43.97746 | 21.34970 | 39003 ft | 462 kts | 155° |
| 2026-04-24 14:44 | 43.91776 | 21.38256 | 39004 ft | 462 kts | 155° |
| 2026-04-24 14:44 | 43.85793 | 21.41543 | 38995 ft | 462 kts | 155° |
| 2026-04-24 14:45 | 43.79801 | 21.44828 | 38999 ft | 462 kts | 155° |
| 2026-04-24 14:45 | 43.73857 | 21.48079 | 38998 ft | 462 kts | 155° |
| 2026-04-24 14:46 | 43.67859 | 21.51352 | 38994 ft | 461 kts | 155° |
| 2026-04-24 14:46 | 43.61925 | 21.54584 | 38990 ft | 461 kts | 155° |
| 2026-04-24 14:47 | 43.55946 | 21.57833 | 39010 ft | 461 kts | 155° |
| 2026-04-24 14:47 | 43.49948 | 21.61086 | 38993 ft | 462 kts | 155° |
| 2026-04-24 14:48 | 43.44002 | 21.64303 | 38991 ft | 461 kts | 155° |
| 2026-04-24 14:48 | 43.38011 | 21.67538 | 38993 ft | 461 kts | 155° |
| 2026-04-24 14:49 | 43.32022 | 21.70765 | 38996 ft | 461 kts | 155° |
| 2026-04-24 14:49 | 43.26059 | 21.73972 | 38993 ft | 461 kts | 155° |
| 2026-04-24 14:50 | 43.20080 | 21.77180 | 38991 ft | 460 kts | 155° |
| 2026-04-24 14:50 | 43.14138 | 21.80361 | 38990 ft | 460 kts | 155° |
| 2026-04-24 14:51 | 43.08168 | 21.83551 | 38989 ft | 460 kts | 155° |
| 2026-04-24 14:51 | 43.02190 | 21.86738 | 38988 ft | 459 kts | 155° |
| 2026-04-24 14:52 | 42.96270 | 21.89888 | 38995 ft | 459 kts | 155° |
| 2026-04-24 14:52 | 42.90302 | 21.93057 | 38987 ft | 459 kts | 155° |
| 2026-04-24 14:53 | 42.84380 | 21.96195 | 38994 ft | 459 kts | 155° |
| 2026-04-24 14:53 | 42.78416 | 21.99349 | 38993 ft | 458 kts | 155° |
| 2026-04-24 14:54 | 42.72489 | 22.02476 | 38988 ft | 458 kts | 155° |
| 2026-04-24 14:54 | 42.66532 | 22.05614 | 38992 ft | 458 kts | 155° |
| 2026-04-24 14:55 | 42.61575 | 22.08220 | 38988 ft | 458 kts | 155° |
| 2026-04-24 14:55 | 42.54652 | 22.11853 | 38985 ft | 458 kts | 155° |
| 2026-04-24 14:56 | 42.48678 | 22.14982 | 38989 ft | 458 kts | 155° |
| 2026-04-24 14:56 | 42.42743 | 22.18083 | 38984 ft | 458 kts | 156° |
| 2026-04-24 14:57 | 42.36784 | 22.21191 | 38986 ft | 458 kts | 156° |
| 2026-04-24 14:57 | 42.30857 | 22.24201 | 38976 ft | 459 kts | 162° |
| 2026-04-24 14:58 | 42.24544 | 22.25744 | 38956 ft | 462 kts | 167° |
| 2026-04-24 14:58 | 42.18241 | 22.27251 | 38987 ft | 462 kts | 167° |
| 2026-04-24 14:59 | 42.11897 | 22.28746 | 38972 ft | 462 kts | 167° |
| 2026-04-24 14:59 | 42.05550 | 22.30237 | 38971 ft | 462 kts | 167° |
| 2026-04-24 15:00 | 41.99218 | 22.31722 | 38969 ft | 461 kts | 168° |
| 2026-04-24 15:00 | 41.92921 | 22.33195 | 38983 ft | 462 kts | 167° |
| 2026-04-24 15:01 | 41.86573 | 22.34678 | 38968 ft | 462 kts | 167° |
| 2026-04-24 15:01 | 41.80228 | 22.36157 | 38962 ft | 462 kts | 167° |
| 2026-04-24 15:02 | 41.73914 | 22.37626 | 38971 ft | 463 kts | 168° |
| 2026-04-24 15:02 | 41.67560 | 22.39101 | 38963 ft | 463 kts | 168° |
| 2026-04-24 15:03 | 41.62269 | 22.40327 | 38965 ft | 463 kts | 168° |
| 2026-04-24 15:03 | 41.54850 | 22.42043 | 38967 ft | 463 kts | 168° |
| 2026-04-24 15:04 | 41.48486 | 22.43511 | 38969 ft | 463 kts | 168° |
| 2026-04-24 15:04 | 41.42150 | 22.44971 | 38971 ft | 463 kts | 168° |
| 2026-04-24 15:05 | 41.35779 | 22.46435 | 38964 ft | 462 kts | 168° |
| 2026-04-24 15:05 | 41.29449 | 22.47888 | 38963 ft | 461 kts | 168° |
| 2026-04-24 15:06 | 41.23150 | 22.49330 | 38965 ft | 461 kts | 168° |
| 2026-04-24 15:06 | 41.16809 | 22.50779 | 38973 ft | 461 kts | 168° |
| 2026-04-24 15:07 | 41.10823 | 22.53320 | 38976 ft | 451 kts | 148° |
| 2026-04-24 15:07 | 41.05202 | 22.57209 | 38959 ft | 455 kts | 150° |
| 2026-04-24 15:08 | 40.99631 | 22.61132 | 38963 ft | 455 kts | 149° |
| 2026-04-24 15:08 | 40.94040 | 22.65097 | 38965 ft | 455 kts | 149° |
| 2026-04-24 15:09 | 40.88439 | 22.69065 | 38968 ft | 456 kts | 149° |
| 2026-04-24 15:09 | 40.82869 | 22.73003 | 38967 ft | 456 kts | 149° |
| 2026-04-24 15:10 | 40.77266 | 22.76958 | 38968 ft | 456 kts | 149° |
| 2026-04-24 15:10 | 40.71662 | 22.80904 | 38967 ft | 456 kts | 149° |
| 2026-04-24 15:11 | 40.66095 | 22.84818 | 38970 ft | 457 kts | 150° |
| 2026-04-24 15:11 | 40.60473 | 22.88763 | 38966 ft | 457 kts | 150° |
| 2026-04-24 15:12 | 40.54848 | 22.92702 | 38964 ft | 457 kts | 150° |
| 2026-04-24 15:12 | 40.46445 | 22.98565 | 38967 ft | 457 kts | 152° |
| 2026-04-24 15:13 | 40.40521 | 23.01668 | 38981 ft | 459 kts | 157° |
| 2026-04-24 15:13 | 40.34569 | 23.04645 | 38969 ft | 459 kts | 157° |
| 2026-04-24 15:14 | 40.28589 | 23.07619 | 38976 ft | 459 kts | 157° |
| 2026-04-24 15:14 | 40.22598 | 23.10591 | 38982 ft | 459 kts | 158° |
| 2026-04-24 15:15 | 40.16606 | 23.13560 | 38990 ft | 461 kts | 158° |
| 2026-04-24 15:15 | 40.10603 | 23.16528 | 38990 ft | 461 kts | 158° |
| 2026-04-24 15:16 | 40.04636 | 23.19472 | 38992 ft | 461 kts | 158° |
| 2026-04-24 15:16 | 39.98606 | 23.22442 | 38991 ft | 461 kts | 158° |
| 2026-04-24 15:17 | 39.92628 | 23.25381 | 38996 ft | 461 kts | 158° |
| 2026-04-24 15:17 | 39.86606 | 23.28337 | 38992 ft | 461 kts | 158° |
| 2026-04-24 15:18 | 39.80577 | 23.31291 | 38992 ft | 461 kts | 158° |
| 2026-04-24 15:18 | 39.74598 | 23.34216 | 39003 ft | 460 kts | 158° |
| 2026-04-24 15:19 | 39.69613 | 23.36647 | 38996 ft | 459 kts | 158° |
| 2026-04-24 15:19 | 39.62638 | 23.40042 | 38997 ft | 460 kts | 158° |
| 2026-04-24 15:20 | 39.57619 | 23.42481 | 39000 ft | 460 kts | 158° |
| 2026-04-24 15:20 | 39.51651 | 23.45376 | 39000 ft | 459 kts | 159° |
| 2026-04-24 15:21 | 39.45651 | 23.48281 | 39002 ft | 459 kts | 159° |
| 2026-04-24 15:21 | 39.39699 | 23.51164 | 39000 ft | 459 kts | 159° |
| 2026-04-24 15:22 | 39.33704 | 23.54066 | 38994 ft | 459 kts | 159° |
| 2026-04-24 15:23 | 39.24771 | 23.58372 | 38992 ft | 458 kts | 159° |
| 2026-04-24 15:23 | 39.15649 | 23.61895 | 38993 ft | 456 kts | 174° |
| 2026-04-24 15:25 | 38.99802 | 23.64299 | 39002 ft | 460 kts | 173° |
| 2026-04-24 15:26 | 38.83913 | 23.66641 | 39001 ft | 461 kts | 173° |
| 2026-04-24 15:27 | 38.64736 | 23.69454 | 38988 ft | 462 kts | 172° |
| 2026-04-24 15:29 | 38.45631 | 23.72240 | 38992 ft | 460 kts | 173° |
| 2026-04-24 15:31 | 38.23328 | 23.75474 | 38993 ft | 461 kts | 172° |
| 2026-04-24 15:33 | 37.98063 | 23.79126 | 38980 ft | 458 kts | 173° |
| 2026-04-24 15:34 | 37.82400 | 23.81522 | 38135 ft | 447 kts | 172° |
| 2026-04-24 15:35 | 37.73162 | 23.83008 | 36277 ft | 443 kts | 172° |
| 2026-04-24 15:35 | 37.67111 | 23.83979 | 35355 ft | 435 kts | 172° |
| 2026-04-24 15:35 | 37.64112 | 23.84460 | 34833 ft | 433 kts | 172° |
| 2026-04-24 15:36 | 37.61157 | 23.84934 | 34322 ft | 431 kts | 172° |
| 2026-04-24 15:36 | 37.55251 | 23.85878 | 33216 ft | 422 kts | 173° |
| 2026-04-24 15:36 | 37.52347 | 23.86343 | 32721 ft | 416 kts | 174° |
| 2026-04-24 15:37 | 37.49506 | 23.86796 | 32272 ft | 408 kts | 174° |
| 2026-04-24 15:37 | 37.46711 | 23.87241 | 31817 ft | 401 kts | 174° |
| 2026-04-24 15:37 | 37.43962 | 23.87679 | 31368 ft | 395 kts | 175° |
| 2026-04-24 15:37 | 37.41251 | 23.88111 | 30924 ft | 389 kts | 175° |
| 2026-04-24 15:38 | 37.38584 | 23.88536 | 30491 ft | 383 kts | 175° |
| 2026-04-24 15:38 | 37.35986 | 23.88949 | 30072 ft | 378 kts | 176° |
| 2026-04-24 15:38 | 37.33393 | 23.89362 | 29595 ft | 373 kts | 176° |
| 2026-04-24 15:38 | 37.30843 | 23.89767 | 29170 ft | 366 kts | 176° |
| 2026-04-24 15:39 | 37.28328 | 23.90167 | 28781 ft | 359 kts | 176° |
| 2026-04-24 15:39 | 37.25902 | 23.90552 | 28404 ft | 352 kts | 176° |
| 2026-04-24 15:39 | 37.23489 | 23.90935 | 28023 ft | 346 kts | 176° |
| 2026-04-24 15:39 | 37.21117 | 23.91310 | 27654 ft | 340 kts | 176° |
| 2026-04-24 15:40 | 37.18773 | 23.91681 | 27280 ft | 338 kts | 176° |
| 2026-04-24 15:40 | 37.16399 | 23.92057 | 26992 ft | 350 kts | 176° |
| 2026-04-24 15:40 | 37.13932 | 23.92447 | 26799 ft | 363 kts | 176° |
| 2026-04-24 15:40 | 37.11437 | 23.92841 | 26462 ft | 367 kts | 176° |
| 2026-04-24 15:41 | 37.08891 | 23.93244 | 26057 ft | 368 kts | 176° |
| 2026-04-24 15:41 | 37.06354 | 23.93644 | 25635 ft | 365 kts | 176° |
| 2026-04-24 15:41 | 37.03841 | 23.94041 | 25231 ft | 363 kts | 175° |
| 2026-04-24 15:41 | 37.01340 | 23.94435 | 24826 ft | 360 kts | 175° |
| 2026-04-24 15:42 | 36.98857 | 23.94826 | 24421 ft | 358 kts | 175° |
| 2026-04-24 15:42 | 36.96416 | 23.95211 | 24043 ft | 356 kts | 175° |
| 2026-04-24 15:42 | 36.93955 | 23.95598 | 23641 ft | 355 kts | 175° |
| 2026-04-24 15:42 | 36.91511 | 23.95981 | 23199 ft | 353 kts | 175° |
| 2026-04-24 15:43 | 36.89081 | 23.96363 | 22792 ft | 350 kts | 175° |
| 2026-04-24 15:43 | 36.86672 | 23.96741 | 22408 ft | 347 kts | 175° |
| 2026-04-24 15:43 | 36.84291 | 23.97114 | 22041 ft | 343 kts | 175° |
| 2026-04-24 15:43 | 36.81930 | 23.97485 | 21678 ft | 340 kts | 175° |
| 2026-04-24 15:44 | 36.79585 | 23.97853 | 21318 ft | 337 kts | 175° |
| 2026-04-24 15:44 | 36.77292 | 23.98212 | 20937 ft | 335 kts | 175° |
| 2026-04-24 15:44 | 36.74968 | 23.98575 | 20508 ft | 335 kts | 175° |
| 2026-04-24 15:44 | 36.72659 | 23.98937 | 20146 ft | 332 kts | 175° |
| 2026-04-24 15:45 | 36.70368 | 23.99295 | 19788 ft | 330 kts | 174° |
| 2026-04-24 15:45 | 36.68102 | 23.99649 | 19437 ft | 327 kts | 174° |
| 2026-04-24 15:45 | 36.65852 | 24.00000 | 19088 ft | 325 kts | 174° |
| 2026-04-24 15:45 | 36.63613 | 24.00350 | 18694 ft | 325 kts | 174° |
| 2026-04-24 15:46 | 36.61342 | 24.00704 | 18318 ft | 334 kts | 174° |
| 2026-04-24 15:46 | 36.59023 | 24.01065 | 17893 ft | 342 kts | 175° |
| 2026-04-24 15:46 | 36.56643 | 24.01436 | 17485 ft | 347 kts | 175° |
| 2026-04-24 15:46 | 36.54237 | 24.01810 | 17092 ft | 348 kts | 175° |
| 2026-04-24 15:47 | 36.51840 | 24.02183 | 16688 ft | 347 kts | 175° |
| 2026-04-24 15:47 | 36.49444 | 24.02556 | 16287 ft | 346 kts | 175° |
| 2026-04-24 15:47 | 36.47085 | 24.02923 | 15889 ft | 345 kts | 175° |
| 2026-04-24 15:47 | 36.44698 | 24.03294 | 15491 ft | 345 kts | 175° |
| 2026-04-24 15:48 | 36.42317 | 24.03662 | 15092 ft | 344 kts | 175° |
| 2026-04-24 15:48 | 36.39938 | 24.03875 | 14654 ft | 341 kts | 186° |
| 2026-04-24 15:48 | 36.37586 | 24.03541 | 14245 ft | 338 kts | 188° |
| 2026-04-24 15:48 | 36.35256 | 24.03209 | 13888 ft | 335 kts | 187° |
| 2026-04-24 15:49 | 36.32978 | 24.02889 | 13484 ft | 333 kts | 187° |
| 2026-04-24 15:49 | 36.30676 | 24.02567 | 13070 ft | 331 kts | 187° |
| 2026-04-24 15:49 | 36.28393 | 24.02248 | 12681 ft | 329 kts | 186° |
| 2026-04-24 15:49 | 36.26120 | 24.01930 | 12301 ft | 326 kts | 186° |
| 2026-04-24 15:50 | 36.23874 | 24.01616 | 11926 ft | 324 kts | 186° |
| 2026-04-24 15:50 | 36.21639 | 24.01303 | 11549 ft | 322 kts | 186° |
| 2026-04-24 15:50 | 36.19434 | 24.00995 | 11179 ft | 324 kts | 185° |
| 2026-04-24 15:50 | 36.17177 | 24.00680 | 10832 ft | 327 kts | 186° |
| 2026-04-24 15:51 | 36.14930 | 24.00365 | 10635 ft | 320 kts | 186° |
| 2026-04-24 15:51 | 36.12745 | 24.00061 | 10504 ft | 310 kts | 186° |
| 2026-04-24 15:51 | 36.10655 | 23.99770 | 10368 ft | 301 kts | 186° |
| 2026-04-24 15:51 | 36.08577 | 23.99480 | 10232 ft | 301 kts | 187° |
| 2026-04-24 15:52 | 36.06482 | 23.99188 | 10090 ft | 304 kts | 186° |
| 2026-04-24 15:52 | 36.04367 | 23.98894 | 9827 ft | 305 kts | 186° |
| 2026-04-24 15:52 | 36.02253 | 23.98601 | 9442 ft | 305 kts | 186° |
| 2026-04-24 15:52 | 36.00139 | 23.98307 | 9090 ft | 305 kts | 186° |
| 2026-04-24 15:53 | 35.98063 | 23.98018 | 8746 ft | 304 kts | 185° |
| 2026-04-24 15:53 | 35.95961 | 23.97726 | 8424 ft | 302 kts | 186° |
| 2026-04-24 15:53 | 35.93875 | 23.97436 | 8084 ft | 300 kts | 185° |
| 2026-04-24 15:53 | 35.91803 | 23.97149 | 7764 ft | 298 kts | 185° |
| 2026-04-24 15:54 | 35.89742 | 23.96864 | 7437 ft | 296 kts | 185° |
| 2026-04-24 15:54 | 35.87732 | 23.96585 | 7112 ft | 291 kts | 185° |
| 2026-04-24 15:54 | 35.85730 | 23.96308 | 6805 ft | 285 kts | 184° |
| 2026-04-24 15:54 | 35.83781 | 23.96039 | 6542 ft | 278 kts | 185° |
| 2026-04-24 15:55 | 35.81865 | 23.95774 | 6204 ft | 275 kts | 185° |
| 2026-04-24 15:55 | 35.79971 | 23.95511 | 5814 ft | 272 kts | 183° |
| 2026-04-24 15:55 | 35.78117 | 23.95255 | 5482 ft | 264 kts | 183° |
| 2026-04-24 15:55 | 35.76345 | 23.95010 | 5206 ft | 254 kts | 184° |
| 2026-04-24 15:56 | 35.74623 | 23.94771 | 4982 ft | 243 kts | 184° |
| 2026-04-24 15:56 | 35.72954 | 23.94540 | 4878 ft | 235 kts | 183° |
| 2026-04-24 15:56 | 35.71358 | 23.94320 | 4770 ft | 233 kts | 183° |
| 2026-04-24 15:56 | 35.69751 | 23.94099 | 4663 ft | 231 kts | 183° |
| 2026-04-24 15:57 | 35.68155 | 23.93880 | 4517 ft | 229 kts | 183° |
| 2026-04-24 15:57 | 35.66574 | 23.93662 | 4373 ft | 228 kts | 183° |
| 2026-04-24 15:57 | 35.65525 | 23.93517 | 4280 ft | 228 kts | 183° |
| 2026-04-24 15:57 | 35.63379 | 23.93221 | 4107 ft | 239 kts | 183° |
| 2026-04-24 15:58 | 35.61714 | 23.93233 | 3890 ft | 236 kts | 160° |
| 2026-04-24 15:58 | 35.60361 | 23.94239 | 3675 ft | 225 kts | 127° |
| 2026-04-24 15:58 | 35.59580 | 23.95858 | 3442 ft | 217 kts | 110° |
| 2026-04-24 15:58 | 35.58991 | 23.97503 | 3161 ft | 209 kts | 109° |
| 2026-04-24 15:59 | 35.58423 | 23.99139 | 2900 ft | 206 kts | 108° |
| 2026-04-24 15:59 | 35.57885 | 24.00711 | 2685 ft | 194 kts | 108° |
| 2026-04-24 15:59 | 35.57377 | 24.02215 | 2431 ft | 187 kts | 108° |
| 2026-04-24 15:59 | 35.56889 | 24.03669 | 2136 ft | 181 kts | 108° |
| 2026-04-24 16:00 | 35.56416 | 24.05086 | 1874 ft | 174 kts | 108° |
| 2026-04-24 16:00 | 35.55985 | 24.06382 | 1671 ft | 157 kts | 109° |
| 2026-04-24 16:00 | 35.55587 | 24.07586 | 1465 ft | 145 kts | 109° |
| 2026-04-24 16:00 | 35.55219 | 24.08694 | 1333 ft | 139 kts | 110° |
| 2026-04-24 16:01 | 35.54847 | 24.09793 | 1143 ft | 141 kts | 110° |
| 2026-04-24 16:01 | 35.54484 | 24.10914 | 948 ft | 139 kts | 110° |
| 2026-04-24 16:01 | 35.54136 | 24.12039 | 788 ft | 141 kts | 111° |
| 2026-04-24 16:01 | 35.53769 | 24.13155 | 588 ft | 139 kts | 113° |
| 2026-04-24 16:02 | 35.53428 | 24.14198 | 501 ft | 118 kts | 111° |
| 2026-04-24 16:02 | 35.53205 | 24.14886 | 492 ft | 55 kts | 111° |
| 2026-04-24 16:02 | 35.53149 | 24.15093 | 492 ft | 14 kts | 71° |
| 2026-04-24 16:02 | 35.53221 | 24.15148 | 491 ft | 11 kts | 23° |
| 2026-04-24 16:03 | 35.53278 | 24.15179 | 496 ft | 8 kts | 5° |
| 2026-04-24 16:03 | 35.53312 | 24.15129 | 499 ft | 9 kts | 292° |
| 2026-04-24 16:03 | 35.53340 | 24.15045 | 499 ft | 13 kts | 291° |
| 2026-04-24 16:03 | 35.53382 | 24.14914 | 499 ft | 17 kts | 292° |
| 2026-04-24 16:04 | 35.53429 | 24.14767 | 499 ft | 20 kts | 291° |
| 2026-04-24 16:04 | 35.53480 | 24.14611 | 499 ft | 19 kts | 291° |
| 2026-04-24 16:04 | 35.53532 | 24.14448 | 500 ft | 21 kts | 291° |
| 2026-04-24 16:04 | 35.53570 | 24.14345 | 500 ft | 9 kts | 316° |
| 2026-04-24 16:05 | 35.53690 | 24.14353 | 500 ft | 10 kts | 310° |
| 2026-04-24 16:05 | 35.53720 | 24.14266 | 500 ft | 13 kts | 291° |
| 2026-04-24 16:06 | 35.53789 | 24.14049 | 500 ft | 9 kts | 292° |
| 2026-04-24 16:06 | 35.53815 | 24.13971 | 500 ft | 8 kts | 291° |
| 2026-04-24 16:06 | 35.53853 | 24.13861 | 500 ft | 3 kts | 323° |
| 2026-04-24 16:07 | 35.53877 | 24.13863 | 500 ft | 5 kts | 24° |
| 2026-04-24 16:07 | 35.53912 | 24.13881 | 500 ft | 4 kts | 21° |
| 2026-04-24 16:07 | 35.53929 | 24.13889 | 500 ft | 0 kts | 21° |